createdAt,value
2023-04-10T00:00:04.022Z,1026.95
2023-04-10T00:05:03.677Z,1026.97
2023-04-10T00:10:03.546Z,1027.01
2023-04-10T00:15:03.125Z,1026.99
2023-04-10T00:20:03.772Z,1026.96
2023-04-10T00:25:03.696Z,1026.84
2023-04-10T00:30:03.528Z,1026.86
2023-04-10T00:35:03.456Z,1026.82
2023-04-10T00:40:03.119Z,1026.75
2023-04-10T00:45:02.895Z,1026.8
2023-04-10T00:50:02.986Z,1026.78
2023-04-10T00:55:03.972Z,1026.72
2023-04-10T01:00:03.700Z,1026.74
2023-04-10T01:05:03.411Z,1026.69
2023-04-10T01:10:03.119Z,1026.69
2023-04-10T01:15:03.572Z,1026.65
2023-04-10T01:20:03.066Z,1026.47
2023-04-10T01:25:03.260Z,1026.61
2023-04-10T01:30:03.706Z,1026.61
2023-04-10T01:35:03.460Z,1026.66
2023-04-10T01:40:03.058Z,1026.56
2023-04-10T01:45:02.965Z,1026.58
2023-04-10T01:50:03.761Z,1026.61
2023-04-10T01:55:03.839Z,1026.62
2023-04-10T02:00:03.540Z,1026.63
2023-04-10T02:05:03.563Z,1026.58
2023-04-10T02:10:03.675Z,1026.61
2023-04-10T02:15:03.458Z,1026.62
2023-04-10T02:20:03.205Z,1026.61
2023-04-10T02:25:02.928Z,1026.54
2023-04-10T02:30:03.850Z,1026.55
2023-04-10T02:35:03.607Z,1026.51
2023-04-10T02:40:03.186Z,1026.51
2023-04-10T02:45:03.094Z,1026.52
2023-04-10T02:50:03.196Z,1026.61
2023-04-10T02:55:02.966Z,1026.66
2023-04-10T03:00:02.920Z,1026.63
2023-04-10T03:05:03.643Z,1026.66
2023-04-10T03:10:03.329Z,1026.77
2023-04-10T03:15:03.202Z,1026.72
2023-04-10T03:20:03.100Z,1026.7
2023-04-10T03:25:03.884Z,1026.66
2023-04-10T03:30:03.663Z,1026.56
2023-04-10T03:35:03.223Z,1026.47
2023-04-10T03:40:03.012Z,1026.61
2023-04-10T03:45:03.039Z,1026.47
2023-04-10T03:50:03.716Z,1026.5
2023-04-10T03:55:04.082Z,1026.57
2023-04-10T04:00:03.691Z,1026.62
2023-04-10T04:05:03.797Z,1026.59
2023-04-10T04:10:03.103Z,1026.63
2023-04-10T04:15:03.808Z,1026.62
2023-04-10T04:20:02.818Z,1026.65
2023-04-10T04:25:03.600Z,1026.62
2023-04-10T04:30:03.492Z,1026.64
2023-04-10T04:35:03.355Z,1026.69
2023-04-10T04:40:02.890Z,1026.65
2023-04-10T04:45:03.733Z,1026.7
2023-04-10T04:50:03.496Z,1026.69
2023-04-10T04:55:03.966Z,1026.73
2023-04-10T05:00:03.222Z,1026.82
2023-04-10T05:05:03.051Z,1026.72
2023-04-10T05:10:03.700Z,1026.79
2023-04-10T05:15:03.584Z,1026.75
2023-04-10T05:20:03.279Z,1026.77
2023-04-10T05:25:02.991Z,1026.9
2023-04-10T05:30:02.883Z,1026.9
2023-04-10T05:35:03.875Z,1026.73
2023-04-10T05:40:03.702Z,1026.78
2023-04-10T05:45:03.679Z,1026.73
2023-04-10T05:50:03.433Z,1026.81
2023-04-10T05:55:03.811Z,1026.73
2023-04-10T06:00:03.194Z,1026.67
2023-04-10T06:05:03.477Z,1026.64
2023-04-10T06:10:03.060Z,1026.59
2023-04-10T06:15:03.731Z,1026.58
2023-04-10T06:20:03.912Z,1026.62
2023-04-10T06:25:03.732Z,1026.61
2023-04-10T06:30:03.476Z,1026.53
2023-04-10T06:35:03.095Z,1026.64
2023-04-10T06:40:03.008Z,1026.46
2023-04-10T06:45:02.932Z,1026.51
2023-04-10T06:50:02.824Z,1026.4
2023-04-10T06:55:03.972Z,1026.36
2023-04-10T07:00:03.607Z,1026.34
2023-04-10T07:05:03.271Z,1026.35
2023-04-10T07:10:02.777Z,1026.39
2023-04-10T07:15:03.493Z,1026.43
2023-04-10T07:20:03.517Z,1026.36
2023-04-10T07:25:03.336Z,1026.48
2023-04-10T07:30:03.244Z,1026.37
2023-04-10T07:35:03.091Z,1026.35
2023-04-10T07:40:03.723Z,1026.42
2023-04-10T07:45:03.771Z,1026.33
2023-04-10T08:00:02.938Z,1026.35
2023-04-10T08:05:03.803Z,1026.24
2023-04-10T08:10:03.681Z,1026.21
2023-04-10T08:15:03.518Z,1026.24
2023-04-10T08:20:03.634Z,1026.13
2023-04-10T08:25:03.244Z,1026.07
2023-04-10T08:30:03.143Z,1026.07
2023-04-10T08:35:03.991Z,1026.07
2023-04-10T08:40:03.656Z,1025.95
2023-04-10T08:45:03.360Z,1025.91
2023-04-10T08:50:03.177Z,1025.87
2023-04-10T08:55:03.412Z,1025.79
2023-04-10T09:00:24.112Z,1025.7
2023-04-10T09:05:03.045Z,1025.75
2023-04-10T09:10:03.764Z,1025.68
2023-04-10T09:15:03.597Z,1025.68
2023-04-10T09:20:03.476Z,1025.65
2023-04-10T09:25:03.391Z,1025.6
2023-04-10T09:30:03.035Z,1025.43
2023-04-10T09:35:03.151Z,1025.44
2023-04-10T09:40:03.716Z,1025.45
2023-04-10T09:45:03.638Z,1025.29
2023-04-10T09:50:03.513Z,1025.22
2023-04-10T09:55:03.799Z,1025.07
2023-04-10T10:00:03.003Z,1025.02
2023-04-10T10:05:03.328Z,1025.06
2023-04-10T10:10:03.652Z,1024.93
2023-04-10T10:15:03.451Z,1024.79
2023-04-10T10:20:03.435Z,1024.71
2023-04-10T10:25:03.062Z,1024.64
2023-04-10T10:30:30.619Z,1024.6
2023-04-10T10:35:03.657Z,1024.52
2023-04-10T10:40:03.720Z,1024.42
2023-04-10T10:50:03.381Z,1024.28
2023-04-10T10:55:03.109Z,1024.16
2023-04-10T11:00:03.633Z,1024.17
2023-04-10T11:05:03.383Z,1024.1
2023-04-10T11:10:03.311Z,1024.05
2023-04-10T11:15:03.262Z,1023.97
2023-04-10T11:20:03.651Z,1023.88
2023-04-10T11:25:03.577Z,1023.8
2023-04-10T11:30:03.385Z,1023.69
2023-04-10T11:35:05.776Z,1023.67
2023-04-10T11:40:03.816Z,1023.65
2023-04-10T11:45:03.825Z,1023.54
2023-04-10T11:50:03.426Z,1023.47
2023-04-10T11:55:03.004Z,1023.39
2023-04-10T12:00:02.966Z,1023.29
2023-04-10T12:05:03.945Z,1023.24
2023-04-10T12:10:03.603Z,1023.21
2023-04-10T12:15:03.597Z,1023.19
2023-04-10T12:20:03.485Z,1023.03
2023-04-10T12:25:03.247Z,1023.06
2023-04-10T12:30:03.048Z,1022.98
2023-04-10T12:35:02.908Z,1022.91
2023-04-10T12:40:03.710Z,1022.79
2023-04-10T12:45:03.749Z,1022.69
2023-04-10T12:50:03.610Z,1022.58
2023-04-10T12:55:03.396Z,1022.56
2023-04-10T13:00:02.999Z,1022.4
2023-04-10T13:05:03.701Z,1022.26
2023-04-10T13:10:03.777Z,1022.19
2023-04-10T13:15:03.834Z,1022
2023-04-10T13:20:03.427Z,1022.03
2023-04-10T13:25:03.621Z,1021.86
2023-04-10T13:30:03.350Z,1021.75
2023-04-10T13:35:03.399Z,1021.69
2023-04-10T13:40:03.071Z,1021.46
2023-04-10T13:45:02.819Z,1021.36
2023-04-10T13:50:03.538Z,1021.27
2023-04-10T13:55:03.817Z,1021.16
2023-04-10T14:00:03.179Z,1021.1
2023-04-10T14:05:03.147Z,1020.98
2023-04-10T14:10:02.869Z,1020.93
2023-04-10T14:15:03.863Z,1020.91
2023-04-10T14:20:02.853Z,1020.83
2023-04-10T14:25:14.540Z,1020.75
2023-04-10T14:30:03.057Z,1020.69
2023-04-10T14:35:03.678Z,1020.66
2023-04-10T14:40:03.351Z,1020.55
2023-04-10T14:45:03.112Z,1020.33
2023-04-10T14:50:03.034Z,1020.35
2023-04-10T14:55:03.512Z,1020.27
2023-04-10T15:00:03.125Z,1020.26
2023-04-10T15:05:02.983Z,1020.06
2023-04-10T15:10:02.848Z,1020.2
2023-04-10T15:15:03.764Z,1019.9
2023-04-10T15:20:02.812Z,1019.75
2023-04-10T15:25:03.627Z,1019.79
2023-04-10T15:30:03.467Z,1019.67
2023-04-10T15:35:03.229Z,1019.61
2023-04-10T15:40:03.182Z,1019.55
2023-04-10T15:45:03.684Z,1019.45
2023-04-10T15:50:03.624Z,1019.24
2023-04-10T15:55:03.400Z,1019.2
2023-04-10T16:00:03.328Z,1019.07
2023-04-10T16:05:03.328Z,1019.03
2023-04-10T16:10:03.545Z,1018.84
2023-04-10T16:15:03.771Z,1018.91
2023-04-10T16:20:03.402Z,1018.82
2023-04-10T16:30:03.860Z,1018.79
2023-04-10T16:35:03.489Z,1018.74
2023-04-10T16:40:03.296Z,1018.65
2023-04-10T16:45:03.415Z,1018.51
2023-04-10T16:50:03.171Z,1018.42
2023-04-10T16:55:03.554Z,1018.34
2023-04-10T17:00:04.010Z,1018.3
2023-04-10T17:05:03.000Z,1018.19
2023-04-10T17:10:03.588Z,1018.1
2023-04-10T17:15:03.434Z,1018.02
2023-04-10T17:20:03.249Z,1017.88
2023-04-10T17:25:03.592Z,1017.88
2023-04-10T17:30:03.980Z,1017.76
2023-04-10T17:35:03.576Z,1017.72
2023-04-10T17:40:03.382Z,1017.67
2023-04-10T17:45:03.019Z,1017.58
2023-04-10T17:50:03.759Z,1017.58
2023-04-10T17:55:03.938Z,1017.55
2023-04-10T18:00:03.715Z,1017.49
2023-04-10T18:05:03.349Z,1017.47
2023-04-10T18:10:03.054Z,1017.42
2023-04-10T18:15:03.023Z,1017.48
2023-04-10T18:20:03.044Z,1017.47
2023-04-10T18:25:03.708Z,1017.37
2023-04-10T18:30:03.694Z,1017.23
2023-04-10T18:35:03.451Z,1017.22
2023-04-10T18:40:17.478Z,1017.12
2023-04-10T18:45:03.415Z,1017.17
2023-04-10T18:50:03.255Z,1017.09
2023-04-10T18:55:03.390Z,1016.98
2023-04-10T19:00:02.800Z,1017.01
2023-04-10T19:05:03.903Z,1017.01
2023-04-10T19:10:03.463Z,1016.94
2023-04-10T19:15:03.453Z,1016.96
2023-04-10T19:20:03.012Z,1016.93
2023-04-10T19:25:03.754Z,1016.9
2023-04-10T19:30:03.509Z,1016.93
2023-04-10T19:35:02.961Z,1016.86
2023-04-10T19:40:02.915Z,1016.65
2023-04-10T19:45:03.747Z,1016.52
2023-04-10T19:50:03.335Z,1016.37
2023-04-10T19:55:03.193Z,1016.23
2023-04-10T20:00:02.899Z,1016.29
2023-04-10T20:05:03.746Z,1016.16
2023-04-10T20:10:03.208Z,1016.12
2023-04-10T20:15:02.926Z,1015.99
2023-04-10T20:20:03.684Z,1015.87
2023-04-10T20:25:03.498Z,1015.88
2023-04-10T20:30:03.312Z,1015.85
2023-04-10T20:35:03.549Z,1015.84
2023-04-10T20:40:03.351Z,1015.86
2023-04-10T20:45:03.068Z,1015.93
2023-04-10T20:50:02.833Z,1015.66
2023-04-10T20:55:03.485Z,1015.66
2023-04-10T21:00:03.502Z,1015.6
2023-04-10T21:05:03.387Z,1015.59
2023-04-10T21:10:03.176Z,1015.54
2023-04-10T21:15:02.888Z,1015.57
2023-04-10T21:20:03.636Z,1015.41
2023-04-10T21:25:03.453Z,1015.44
2023-04-10T21:30:03.592Z,1015.44
2023-04-10T21:35:03.580Z,1015.44
2023-04-10T21:40:03.254Z,1015.34
2023-04-10T21:45:02.984Z,1015.21
2023-04-10T21:50:03.099Z,1015.05
2023-04-10T21:55:07.141Z,1014.97
2023-04-10T22:00:03.180Z,1014.77
2023-04-10T22:05:03.166Z,1014.65
2023-04-10T22:10:03.064Z,1014.65
2023-04-10T22:15:02.961Z,1014.58
2023-04-10T22:20:02.855Z,1014.59
2023-04-10T22:25:03.812Z,1014.54
2023-04-10T22:30:05.400Z,1014.48
2023-04-10T22:35:03.196Z,1014.54
2023-04-10T22:40:02.924Z,1014.54
2023-04-10T22:45:02.850Z,1014.48
2023-04-10T22:50:03.695Z,1014.27
2023-04-10T22:55:03.370Z,1014.17
2023-04-10T23:00:02.959Z,1013.93
2023-04-10T23:05:03.796Z,1013.89
2023-04-10T23:10:03.427Z,1013.63
2023-04-10T23:15:03.164Z,1013.56
2023-04-10T23:20:03.176Z,1013.5
2023-04-10T23:25:03.264Z,1013.32
2023-04-10T23:30:03.252Z,1013.28
2023-04-10T23:35:02.860Z,1013.15
2023-04-10T23:40:03.737Z,1012.85
2023-04-10T23:45:03.503Z,1012.75
2023-04-10T23:50:03.462Z,1012.63
2023-04-10T23:55:03.499Z,1012.51
